Terminal Aerodrome Forecast
Issued by NWS

Home | Current Version | Previous Version | Text Only | Print | Product List | Glossary On
Versions: 1 2 3 4 5 6 7 8 9 10 11 12 13 14 15 16 17 18 19 20 21
000
FTUS43 KIND 231125
TAFHUF
TAF
KHUF 231125Z 2312/2412 20006KT P6SM BKN035
     FM231400 20006KT P6SM BKN015
     FM232000 19008KT P6SM BKN035
     FM232300 16006KT P6SM BKN030
     FM240100 15006KT P6SM BKN035
     FM240300 16008KT P6SM BKN030
     FM240500 17011KT P6SM BKN035
     FM240700 17013KT P6SM BKN040
     FM241100 18015G23KT P6SM BKN025=

USA.gov is the U.S. government's official web portal to all federal, state and local government web resources and services.